sensor_id;sensor_type;location;lat;lon;timestamp;temperature;humidity
997;DHT22;487;50.126;8.698;2023-12-14T00:01:21;8.60;99.90
997;DHT22;487;50.126;8.698;2023-12-14T00:03:49;8.50;99.90
997;DHT22;487;50.126;8.698;2023-12-14T00:06:17;8.60;99.90
997;DHT22;487;50.126;8.698;2023-12-14T00:08:45;8.60;99.90
997;DHT22;487;50.126;8.698;2023-12-14T00:11:12;8.60;99.90
997;DHT22;487;50.126;8.698;2023-12-14T00:13:42;8.60;99.90
997;DHT22;487;50.126;8.698;2023-12-14T00:16:10;8.60;99.90
997;DHT22;487;50.126;8.698;2023-12-14T00:18:37;8.60;99.90
997;DHT22;487;50.126;8.698;2023-12-14T00:21:06;8.50;99.90
997;DHT22;487;50.126;8.698;2023-12-14T00:23:34;8.50;99.90
997;DHT22;487;50.126;8.698;2023-12-14T00:26:02;8.50;99.90
997;DHT22;487;50.126;8.698;2023-12-14T00:31:01;8.60;99.90
997;DHT22;487;50.126;8.698;2023-12-14T00:33:29;8.50;99.90
997;DHT22;487;50.126;8.698;2023-12-14T00:35:57;8.50;99.90
997;DHT22;487;50.126;8.698;2023-12-14T00:38:25;8.50;99.90
997;DHT22;487;50.126;8.698;2023-12-14T00:40:53;8.40;99.90
997;DHT22;487;50.126;8.698;2023-12-14T00:43:21;8.50;99.90
997;DHT22;487;50.126;8.698;2023-12-14T00:45:49;8.50;99.90
997;DHT22;487;50.126;8.698;2023-12-14T00:48:20;8.50;99.90
997;DHT22;487;50.126;8.698;2023-12-14T00:50:48;8.40;99.90
997;DHT22;487;50.126;8.698;2023-12-14T00:53:16;8.30;99.90
997;DHT22;487;50.126;8.698;2023-12-14T00:55:44;8.30;99.90
997;DHT22;487;50.126;8.698;2023-12-14T00:58:12;8.30;99.90
997;DHT22;487;50.126;8.698;2023-12-14T01:00:41;8.30;99.90
997;DHT22;487;50.126;8.698;2023-12-14T01:03:09;8.30;99.90
997;DHT22;487;50.126;8.698;2023-12-14T01:08:06;8.40;99.90
997;DHT22;487;50.126;8.698;2023-12-14T01:10:35;8.40;99.90
997;DHT22;487;50.126;8.698;2023-12-14T01:13:03;8.40;99.90
997;DHT22;487;50.126;8.698;2023-12-14T01:15:31;8.40;99.90
997;DHT22;487;50.126;8.698;2023-12-14T01:17:59;8.50;99.90
997;DHT22;487;50.126;8.698;2023-12-14T01:20:27;8.50;99.90
997;DHT22;487;50.126;8.698;2023-12-14T01:25:25;8.50;99.90
997;DHT22;487;50.126;8.698;2023-12-14T01:30:21;8.50;99.90
997;DHT22;487;50.126;8.698;2023-12-14T01:32:49;8.50;99.90
997;DHT22;487;50.126;8.698;2023-12-14T01:37:45;8.60;99.90
997;DHT22;487;50.126;8.698;2023-12-14T01:40:18;8.60;99.90
997;DHT22;487;50.126;8.698;2023-12-14T01:42:46;8.60;99.90
997;DHT22;487;50.126;8.698;2023-12-14T01:45:14;8.60;99.90
997;DHT22;487;50.126;8.698;2023-12-14T01:47:43;8.70;99.90
997;DHT22;487;50.126;8.698;2023-12-14T01:50:11;8.60;99.90
997;DHT22;487;50.126;8.698;2023-12-14T01:52:39;8.60;99.90
997;DHT22;487;50.126;8.698;2023-12-14T01:55:07;8.40;99.90
997;DHT22;487;50.126;8.698;2023-12-14T02:00:06;8.50;99.90
997;DHT22;487;50.126;8.698;2023-12-14T02:02:34;8.60;99.90
997;DHT22;487;50.126;8.698;2023-12-14T02:05:04;8.50;99.90
997;DHT22;487;50.126;8.698;2023-12-14T02:07:33;8.60;99.90
997;DHT22;487;50.126;8.698;2023-12-14T02:10:01;8.70;99.90
997;DHT22;487;50.126;8.698;2023-12-14T02:12:29;8.70;99.90
997;DHT22;487;50.126;8.698;2023-12-14T02:14:58;8.80;99.90
997;DHT22;487;50.126;8.698;2023-12-14T02:17:26;8.60;99.90
997;DHT22;487;50.126;8.698;2023-12-14T02:19:54;8.60;99.90
997;DHT22;487;50.126;8.698;2023-12-14T02:22:23;8.70;99.90
997;DHT22;487;50.126;8.698;2023-12-14T02:24:53;8.70;99.90
997;DHT22;487;50.126;8.698;2023-12-14T02:27:20;8.70;99.90
997;DHT22;487;50.126;8.698;2023-12-14T02:29:48;8.70;99.90
997;DHT22;487;50.126;8.698;2023-12-14T02:32:16;8.80;99.90
997;DHT22;487;50.126;8.698;2023-12-14T02:34:44;8.70;99.90
997;DHT22;487;50.126;8.698;2023-12-14T02:37:12;8.70;99.90
997;DHT22;487;50.126;8.698;2023-12-14T02:39:39;8.70;99.90
997;DHT22;487;50.126;8.698;2023-12-14T02:42:08;8.80;99.90
997;DHT22;487;50.126;8.698;2023-12-14T02:44:36;8.80;99.90
997;DHT22;487;50.126;8.698;2023-12-14T02:47:04;8.70;99.90
997;DHT22;487;50.126;8.698;2023-12-14T02:49:32;8.70;99.90
997;DHT22;487;50.126;8.698;2023-12-14T02:52:01;8.80;99.90
997;DHT22;487;50.126;8.698;2023-12-14T02:54:28;8.80;99.90
997;DHT22;487;50.126;8.698;2023-12-14T02:56:56;8.70;99.90
997;DHT22;487;50.126;8.698;2023-12-14T02:59:25;8.70;99.90
997;DHT22;487;50.126;8.698;2023-12-14T03:01:53;8.60;99.90
997;DHT22;487;50.126;8.698;2023-12-14T03:04:21;8.60;99.90
997;DHT22;487;50.126;8.698;2023-12-14T03:06:49;8.60;99.90
997;DHT22;487;50.126;8.698;2023-12-14T03:09:17;8.60;99.90
997;DHT22;487;50.126;8.698;2023-12-14T03:11:46;8.50;99.90
997;DHT22;487;50.126;8.698;2023-12-14T03:14:14;8.40;99.90
997;DHT22;487;50.126;8.698;2023-12-14T03:16:43;8.50;99.90
997;DHT22;487;50.126;8.698;2023-12-14T03:19:11;8.50;99.90
997;DHT22;487;50.126;8.698;2023-12-14T03:21:39;8.50;99.90
997;DHT22;487;50.126;8.698;2023-12-14T03:24:07;8.60;99.90
997;DHT22;487;50.126;8.698;2023-12-14T03:26:35;8.60;99.90
997;DHT22;487;50.126;8.698;2023-12-14T03:29:03;8.60;99.90
997;DHT22;487;50.126;8.698;2023-12-14T03:31:31;8.50;99.90
997;DHT22;487;50.126;8.698;2023-12-14T03:34:00;8.50;99.90
997;DHT22;487;50.126;8.698;2023-12-14T03:36:29;8.50;99.90
997;DHT22;487;50.126;8.698;2023-12-14T03:38:57;8.50;99.90
997;DHT22;487;50.126;8.698;2023-12-14T03:41:25;8.40;99.90
997;DHT22;487;50.126;8.698;2023-12-14T03:43:52;8.40;99.90
997;DHT22;487;50.126;8.698;2023-12-14T03:46:20;8.30;99.90
997;DHT22;487;50.126;8.698;2023-12-14T03:48:48;8.20;99.90
997;DHT22;487;50.126;8.698;2023-12-14T03:51:19;8.20;99.90
997;DHT22;487;50.126;8.698;2023-12-14T03:53:47;8.20;99.90
997;DHT22;487;50.126;8.698;2023-12-14T03:56:15;8.20;99.90
997;DHT22;487;50.126;8.698;2023-12-14T03:58:43;8.20;99.90
997;DHT22;487;50.126;8.698;2023-12-14T04:01:16;8.20;99.90
997;DHT22;487;50.126;8.698;2023-12-14T04:03:44;8.10;99.90
997;DHT22;487;50.126;8.698;2023-12-14T04:06:12;8.20;99.90
997;DHT22;487;50.126;8.698;2023-12-14T04:08:42;8.00;99.90
997;DHT22;487;50.126;8.698;2023-12-14T04:11:10;8.00;99.90
997;DHT22;487;50.126;8.698;2023-12-14T04:13:38;8.00;99.90
997;DHT22;487;50.126;8.698;2023-12-14T04:16:07;8.00;99.90
997;DHT22;487;50.126;8.698;2023-12-14T04:18:35;8.00;99.90
997;DHT22;487;50.126;8.698;2023-12-14T04:21:04;8.00;99.90
997;DHT22;487;50.126;8.698;2023-12-14T04:23:32;8.00;99.90
997;DHT22;487;50.126;8.698;2023-12-14T04:26:02;8.10;99.90
997;DHT22;487;50.126;8.698;2023-12-14T04:28:30;8.10;99.90
997;DHT22;487;50.126;8.698;2023-12-14T04:30:58;8.00;99.90
997;DHT22;487;50.126;8.698;2023-12-14T04:33:26;8.00;99.90
997;DHT22;487;50.126;8.698;2023-12-14T04:35:53;8.00;99.90
997;DHT22;487;50.126;8.698;2023-12-14T04:38:20;7.90;99.90
997;DHT22;487;50.126;8.698;2023-12-14T04:40:48;7.90;99.90
997;DHT22;487;50.126;8.698;2023-12-14T04:43:17;8.00;99.90
997;DHT22;487;50.126;8.698;2023-12-14T04:45:45;7.90;99.90
997;DHT22;487;50.126;8.698;2023-12-14T04:48:13;7.90;99.90
997;DHT22;487;50.126;8.698;2023-12-14T04:50:41;7.90;99.90
997;DHT22;487;50.126;8.698;2023-12-14T04:53:09;7.80;99.90
997;DHT22;487;50.126;8.698;2023-12-14T04:55:37;7.90;1.00
997;DHT22;487;50.126;8.698;2023-12-14T04:58:04;7.90;1.00
997;DHT22;487;50.126;8.698;2023-12-14T05:00:34;8.00;1.00
997;DHT22;487;50.126;8.698;2023-12-14T05:03:01;8.00;1.00
997;DHT22;487;50.126;8.698;2023-12-14T05:05:29;8.00;1.00
997;DHT22;487;50.126;8.698;2023-12-14T05:07:57;8.00;1.00
997;DHT22;487;50.126;8.698;2023-12-14T05:10:25;7.90;1.00
997;DHT22;487;50.126;8.698;2023-12-14T05:12:53;8.00;1.00
997;DHT22;487;50.126;8.698;2023-12-14T05:15:21;7.90;1.00
997;DHT22;487;50.126;8.698;2023-12-14T05:17:50;7.90;1.00
997;DHT22;487;50.126;8.698;2023-12-14T05:20:18;7.80;1.00
997;DHT22;487;50.126;8.698;2023-12-14T05:22:47;7.70;1.00
997;DHT22;487;50.126;8.698;2023-12-14T05:25:15;7.70;1.00
997;DHT22;487;50.126;8.698;2023-12-14T05:27:43;7.70;1.00
997;DHT22;487;50.126;8.698;2023-12-14T05:30:11;7.80;1.00
997;DHT22;487;50.126;8.698;2023-12-14T05:32:39;7.80;1.00
997;DHT22;487;50.126;8.698;2023-12-14T05:35:09;7.80;1.00
997;DHT22;487;50.126;8.698;2023-12-14T05:37:38;7.80;1.00
997;DHT22;487;50.126;8.698;2023-12-14T05:40:07;7.80;1.00
997;DHT22;487;50.126;8.698;2023-12-14T05:42:35;7.70;1.00
997;DHT22;487;50.126;8.698;2023-12-14T05:45:05;7.70;1.00
997;DHT22;487;50.126;8.698;2023-12-14T05:47:37;7.70;1.00
997;DHT22;487;50.126;8.698;2023-12-14T05:50:07;7.60;1.00
997;DHT22;487;50.126;8.698;2023-12-14T05:52:38;7.70;1.00
997;DHT22;487;50.126;8.698;2023-12-14T05:55:08;7.80;1.00
997;DHT22;487;50.126;8.698;2023-12-14T05:57:36;7.80;1.00
997;DHT22;487;50.126;8.698;2023-12-14T06:00:05;7.70;1.00
997;DHT22;487;50.126;8.698;2023-12-14T06:02:33;7.80;1.00
997;DHT22;487;50.126;8.698;2023-12-14T06:05:06;7.80;1.00
997;DHT22;487;50.126;8.698;2023-12-14T06:07:34;7.80;1.00
997;DHT22;487;50.126;8.698;2023-12-14T06:10:05;7.80;1.00
997;DHT22;487;50.126;8.698;2023-12-14T06:12:33;7.90;1.00
997;DHT22;487;50.126;8.698;2023-12-14T06:15:01;7.90;1.00
997;DHT22;487;50.126;8.698;2023-12-14T06:17:29;7.90;1.00
997;DHT22;487;50.126;8.698;2023-12-14T06:19:58;8.00;1.00
997;DHT22;487;50.126;8.698;2023-12-14T06:22:26;8.00;1.00
997;DHT22;487;50.126;8.698;2023-12-14T06:24:54;8.10;1.00
997;DHT22;487;50.126;8.698;2023-12-14T06:27:24;8.00;99.90
997;DHT22;487;50.126;8.698;2023-12-14T06:29:53;8.00;99.90
997;DHT22;487;50.126;8.698;2023-12-14T06:32:21;8.10;99.90
997;DHT22;487;50.126;8.698;2023-12-14T06:34:49;8.00;99.90
997;DHT22;487;50.126;8.698;2023-12-14T06:37:17;8.00;99.90
997;DHT22;487;50.126;8.698;2023-12-14T06:39:45;8.00;99.90
997;DHT22;487;50.126;8.698;2023-12-14T06:42:13;7.90;99.90
997;DHT22;487;50.126;8.698;2023-12-14T06:44:42;8.00;99.90
997;DHT22;487;50.126;8.698;2023-12-14T06:47:10;8.00;99.90
997;DHT22;487;50.126;8.698;2023-12-14T06:52:09;8.00;99.90
997;DHT22;487;50.126;8.698;2023-12-14T06:54:37;8.00;99.90
997;DHT22;487;50.126;8.698;2023-12-14T06:57:05;8.00;99.90
997;DHT22;487;50.126;8.698;2023-12-14T06:59:33;7.90;99.90
997;DHT22;487;50.126;8.698;2023-12-14T07:02:03;8.00;99.90
997;DHT22;487;50.126;8.698;2023-12-14T07:04:31;7.90;99.90
997;DHT22;487;50.126;8.698;2023-12-14T07:06:59;7.90;99.90
997;DHT22;487;50.126;8.698;2023-12-14T07:11:55;7.90;99.90
997;DHT22;487;50.126;8.698;2023-12-14T07:14:23;7.90;99.90
997;DHT22;487;50.126;8.698;2023-12-14T07:16:52;8.00;99.90
997;DHT22;487;50.126;8.698;2023-12-14T07:19:21;8.00;99.90
997;DHT22;487;50.126;8.698;2023-12-14T07:24:17;8.00;99.90
997;DHT22;487;50.126;8.698;2023-12-14T07:26:45;8.10;99.90
997;DHT22;487;50.126;8.698;2023-12-14T07:29:13;8.10;99.90
997;DHT22;487;50.126;8.698;2023-12-14T07:31:41;8.10;99.90
997;DHT22;487;50.126;8.698;2023-12-14T07:36:38;8.10;99.90
997;DHT22;487;50.126;8.698;2023-12-14T07:39:06;8.10;99.90
997;DHT22;487;50.126;8.698;2023-12-14T07:41:35;8.20;99.90
997;DHT22;487;50.126;8.698;2023-12-14T07:44:03;8.20;99.90
997;DHT22;487;50.126;8.698;2023-12-14T07:46:32;8.20;99.90
997;DHT22;487;50.126;8.698;2023-12-14T07:49:01;8.20;99.90
997;DHT22;487;50.126;8.698;2023-12-14T07:51:29;8.30;99.90
997;DHT22;487;50.126;8.698;2023-12-14T07:53:58;8.30;99.90
997;DHT22;487;50.126;8.698;2023-12-14T07:56:26;8.30;99.90
997;DHT22;487;50.126;8.698;2023-12-14T07:58:54;8.30;99.90
997;DHT22;487;50.126;8.698;2023-12-14T08:01:22;8.30;99.90
997;DHT22;487;50.126;8.698;2023-12-14T08:03:50;8.20;99.90
997;DHT22;487;50.126;8.698;2023-12-14T08:06:18;8.30;99.90
997;DHT22;487;50.126;8.698;2023-12-14T08:08:46;8.20;99.90
997;DHT22;487;50.126;8.698;2023-12-14T08:11:15;8.10;99.90
997;DHT22;487;50.126;8.698;2023-12-14T08:13:43;8.10;99.90
997;DHT22;487;50.126;8.698;2023-12-14T08:16:11;8.20;99.90
997;DHT22;487;50.126;8.698;2023-12-14T08:18:39;8.20;99.90
997;DHT22;487;50.126;8.698;2023-12-14T08:21:07;8.30;99.90
997;DHT22;487;50.126;8.698;2023-12-14T08:23:38;8.40;99.90
997;DHT22;487;50.126;8.698;2023-12-14T08:28:38;8.40;99.90
997;DHT22;487;50.126;8.698;2023-12-14T08:31:06;8.40;99.90
997;DHT22;487;50.126;8.698;2023-12-14T08:33:36;8.40;99.90
997;DHT22;487;50.126;8.698;2023-12-14T08:36:05;8.40;99.90
997;DHT22;487;50.126;8.698;2023-12-14T08:38:33;8.40;99.90
997;DHT22;487;50.126;8.698;2023-12-14T08:41:01;8.40;99.90
997;DHT22;487;50.126;8.698;2023-12-14T08:43:29;8.40;99.90
997;DHT22;487;50.126;8.698;2023-12-14T08:45:58;8.40;99.90
997;DHT22;487;50.126;8.698;2023-12-14T08:48:26;8.50;99.90
997;DHT22;487;50.126;8.698;2023-12-14T08:50:54;8.60;99.90
997;DHT22;487;50.126;8.698;2023-12-14T08:53:22;8.60;99.90
997;DHT22;487;50.126;8.698;2023-12-14T08:55:50;8.80;99.90
997;DHT22;487;50.126;8.698;2023-12-14T08:58:18;8.90;99.90
997;DHT22;487;50.126;8.698;2023-12-14T09:00:45;8.90;99.90
997;DHT22;487;50.126;8.698;2023-12-14T09:03:15;8.90;99.90
997;DHT22;487;50.126;8.698;2023-12-14T09:05:43;8.90;99.90
997;DHT22;487;50.126;8.698;2023-12-14T09:08:11;8.90;99.90
997;DHT22;487;50.126;8.698;2023-12-14T09:10:39;8.90;99.90
997;DHT22;487;50.126;8.698;2023-12-14T09:13:08;8.80;99.90
997;DHT22;487;50.126;8.698;2023-12-14T09:15:36;8.80;99.90
997;DHT22;487;50.126;8.698;2023-12-14T09:18:04;8.80;99.90
997;DHT22;487;50.126;8.698;2023-12-14T09:20:33;8.80;99.90
997;DHT22;487;50.126;8.698;2023-12-14T09:23:04;8.80;99.90
997;DHT22;487;50.126;8.698;2023-12-14T09:25:32;8.80;99.90
997;DHT22;487;50.126;8.698;2023-12-14T09:28:00;8.70;99.90
997;DHT22;487;50.126;8.698;2023-12-14T09:30:28;8.60;99.90
997;DHT22;487;50.126;8.698;2023-12-14T09:35:25;8.60;99.90
997;DHT22;487;50.126;8.698;2023-12-14T09:37:55;8.60;99.90
997;DHT22;487;50.126;8.698;2023-12-14T09:40:23;8.70;99.90
997;DHT22;487;50.126;8.698;2023-12-14T09:42:51;8.70;99.90
997;DHT22;487;50.126;8.698;2023-12-14T09:45:20;8.80;99.90
997;DHT22;487;50.126;8.698;2023-12-14T09:47:51;8.80;99.90
997;DHT22;487;50.126;8.698;2023-12-14T09:50:20;8.80;99.90
997;DHT22;487;50.126;8.698;2023-12-14T09:52:48;8.80;99.90
997;DHT22;487;50.126;8.698;2023-12-14T09:55:18;8.80;99.90
997;DHT22;487;50.126;8.698;2023-12-14T09:57:46;8.90;99.90
997;DHT22;487;50.126;8.698;2023-12-14T10:00:32;9.00;99.90
997;DHT22;487;50.126;8.698;2023-12-14T10:03:24;9.00;99.90
997;DHT22;487;50.126;8.698;2023-12-14T10:05:53;9.00;99.90
997;DHT22;487;50.126;8.698;2023-12-14T10:10:53;9.00;99.90
997;DHT22;487;50.126;8.698;2023-12-14T10:13:36;9.00;99.90
997;DHT22;487;50.126;8.698;2023-12-14T10:16:04;9.00;99.90
997;DHT22;487;50.126;8.698;2023-12-14T10:18:34;9.10;99.90
997;DHT22;487;50.126;8.698;2023-12-14T10:21:05;9.10;99.90
997;DHT22;487;50.126;8.698;2023-12-14T10:26:05;9.10;99.90
997;DHT22;487;50.126;8.698;2023-12-14T10:28:33;9.10;99.90
997;DHT22;487;50.126;8.698;2023-12-14T10:31:01;9.10;99.90
997;DHT22;487;50.126;8.698;2023-12-14T10:33:32;9.00;99.90
997;DHT22;487;50.126;8.698;2023-12-14T10:36:00;8.90;99.90
997;DHT22;487;50.126;8.698;2023-12-14T10:38:29;8.90;99.90
997;DHT22;487;50.126;8.698;2023-12-14T10:40:58;8.90;99.90
997;DHT22;487;50.126;8.698;2023-12-14T10:43:28;8.80;99.90
997;DHT22;487;50.126;8.698;2023-12-14T10:46:15;8.90;99.90
997;DHT22;487;50.126;8.698;2023-12-14T10:48:43;8.90;99.90
997;DHT22;487;50.126;8.698;2023-12-14T10:51:13;9.00;99.90
997;DHT22;487;50.126;8.698;2023-12-14T10:53:42;9.00;99.90
997;DHT22;487;50.126;8.698;2023-12-14T10:56:14;9.00;99.90
997;DHT22;487;50.126;8.698;2023-12-14T10:58:51;8.90;99.90
997;DHT22;487;50.126;8.698;2023-12-14T11:01:21;8.90;99.90
997;DHT22;487;50.126;8.698;2023-12-14T11:03:54;9.00;99.90
997;DHT22;487;50.126;8.698;2023-12-14T11:06:31;9.10;99.90
997;DHT22;487;50.126;8.698;2023-12-14T11:09:01;9.10;99.90
997;DHT22;487;50.126;8.698;2023-12-14T11:11:40;9.10;99.90
997;DHT22;487;50.126;8.698;2023-12-14T11:14:12;9.10;99.90
997;DHT22;487;50.126;8.698;2023-12-14T11:16:41;9.20;99.90
997;DHT22;487;50.126;8.698;2023-12-14T11:19:26;9.30;99.90
997;DHT22;487;50.126;8.698;2023-12-14T11:22:23;9.30;99.90
997;DHT22;487;50.126;8.698;2023-12-14T11:24:53;9.30;99.90
997;DHT22;487;50.126;8.698;2023-12-14T11:27:26;9.40;99.90
997;DHT22;487;50.126;8.698;2023-12-14T11:29:57;9.40;99.90
997;DHT22;487;50.126;8.698;2023-12-14T11:32:27;9.50;99.90
997;DHT22;487;50.126;8.698;2023-12-14T11:34:55;9.50;99.90
997;DHT22;487;50.126;8.698;2023-12-14T11:37:23;9.50;99.90
997;DHT22;487;50.126;8.698;2023-12-14T11:39:52;9.60;99.90
997;DHT22;487;50.126;8.698;2023-12-14T11:42:21;9.60;99.90
997;DHT22;487;50.126;8.698;2023-12-14T11:44:49;9.70;99.90
997;DHT22;487;50.126;8.698;2023-12-14T11:47:18;9.70;99.90
997;DHT22;487;50.126;8.698;2023-12-14T11:49:46;9.70;99.90
997;DHT22;487;50.126;8.698;2023-12-14T11:52:14;9.80;99.90
997;DHT22;487;50.126;8.698;2023-12-14T11:54:44;12.50;99.90
997;DHT22;487;50.126;8.698;2023-12-14T11:59:40;9.80;99.90
997;DHT22;487;50.126;8.698;2023-12-14T12:02:08;9.80;99.90
997;DHT22;487;50.126;8.698;2023-12-14T12:04:37;9.80;99.90
997;DHT22;487;50.126;8.698;2023-12-14T12:07:06;9.80;99.90
997;DHT22;487;50.126;8.698;2023-12-14T12:09:36;9.80;99.90
997;DHT22;487;50.126;8.698;2023-12-14T12:12:08;9.80;99.90
997;DHT22;487;50.126;8.698;2023-12-14T12:14:37;9.80;99.90
997;DHT22;487;50.126;8.698;2023-12-14T12:17:06;9.90;99.90
997;DHT22;487;50.126;8.698;2023-12-14T12:19:35;9.90;99.90
997;DHT22;487;50.126;8.698;2023-12-14T12:22:04;9.90;99.90
997;DHT22;487;50.126;8.698;2023-12-14T12:27:01;9.80;99.90
997;DHT22;487;50.126;8.698;2023-12-14T12:29:29;9.80;99.90
997;DHT22;487;50.126;8.698;2023-12-14T12:31:57;9.80;99.90
997;DHT22;487;50.126;8.698;2023-12-14T12:34:25;9.70;99.90
997;DHT22;487;50.126;8.698;2023-12-14T12:36:54;9.70;99.90
997;DHT22;487;50.126;8.698;2023-12-14T12:39:25;9.60;99.90
997;DHT22;487;50.126;8.698;2023-12-14T12:41:55;9.60;99.90
997;DHT22;487;50.126;8.698;2023-12-14T12:44:23;9.60;99.90
997;DHT22;487;50.126;8.698;2023-12-14T12:46:50;9.50;99.90
997;DHT22;487;50.126;8.698;2023-12-14T12:49:36;9.60;99.90
997;DHT22;487;50.126;8.698;2023-12-14T12:52:05;9.50;99.90
997;DHT22;487;50.126;8.698;2023-12-14T12:57:03;9.60;99.90
997;DHT22;487;50.126;8.698;2023-12-14T12:59:31;9.60;99.90
997;DHT22;487;50.126;8.698;2023-12-14T13:02:00;9.60;99.90
997;DHT22;487;50.126;8.698;2023-12-14T13:06:58;9.60;99.90
997;DHT22;487;50.126;8.698;2023-12-14T13:09:28;9.60;99.90
997;DHT22;487;50.126;8.698;2023-12-14T13:11:58;9.60;99.90
997;DHT22;487;50.126;8.698;2023-12-14T13:14:26;9.50;99.90
997;DHT22;487;50.126;8.698;2023-12-14T13:16:54;9.50;99.90
997;DHT22;487;50.126;8.698;2023-12-14T13:19:22;9.50;99.90
997;DHT22;487;50.126;8.698;2023-12-14T13:21:50;9.50;99.90
997;DHT22;487;50.126;8.698;2023-12-14T13:24:18;9.50;99.90
997;DHT22;487;50.126;8.698;2023-12-14T13:26:46;9.50;99.90
997;DHT22;487;50.126;8.698;2023-12-14T13:29:15;9.50;99.90
997;DHT22;487;50.126;8.698;2023-12-14T13:31:43;9.50;99.90
997;DHT22;487;50.126;8.698;2023-12-14T13:36:40;9.40;99.90
997;DHT22;487;50.126;8.698;2023-12-14T13:39:08;9.30;99.90
997;DHT22;487;50.126;8.698;2023-12-14T13:41:36;9.40;99.90
997;DHT22;487;50.126;8.698;2023-12-14T13:46:46;9.40;99.90
997;DHT22;487;50.126;8.698;2023-12-14T13:49:14;9.50;99.90
997;DHT22;487;50.126;8.698;2023-12-14T13:51:41;9.50;99.90
997;DHT22;487;50.126;8.698;2023-12-14T13:54:10;9.50;99.90
997;DHT22;487;50.126;8.698;2023-12-14T13:56:38;9.50;99.90
997;DHT22;487;50.126;8.698;2023-12-14T14:01:36;9.50;99.90
997;DHT22;487;50.126;8.698;2023-12-14T14:04:04;9.50;99.90
997;DHT22;487;50.126;8.698;2023-12-14T14:06:32;9.50;99.90
997;DHT22;487;50.126;8.698;2023-12-14T14:09:00;9.50;99.90
997;DHT22;487;50.126;8.698;2023-12-14T14:11:28;9.50;99.90
997;DHT22;487;50.126;8.698;2023-12-14T14:13:56;9.50;99.90
997;DHT22;487;50.126;8.698;2023-12-14T14:16:24;9.50;99.90
997;DHT22;487;50.126;8.698;2023-12-14T14:18:53;9.50;99.90
997;DHT22;487;50.126;8.698;2023-12-14T14:23:50;9.50;99.90
997;DHT22;487;50.126;8.698;2023-12-14T14:26:18;9.50;99.90
997;DHT22;487;50.126;8.698;2023-12-14T14:28:46;9.50;99.90
997;DHT22;487;50.126;8.698;2023-12-14T14:31:14;9.50;99.90
997;DHT22;487;50.126;8.698;2023-12-14T14:33:42;9.50;99.90
997;DHT22;487;50.126;8.698;2023-12-14T14:36:12;9.40;99.90
997;DHT22;487;50.126;8.698;2023-12-14T14:38:40;9.40;99.90
997;DHT22;487;50.126;8.698;2023-12-14T14:41:08;9.30;99.90
997;DHT22;487;50.126;8.698;2023-12-14T14:43:36;9.30;99.90
997;DHT22;487;50.126;8.698;2023-12-14T14:46:04;9.30;99.90
997;DHT22;487;50.126;8.698;2023-12-14T14:48:32;9.40;99.90
997;DHT22;487;50.126;8.698;2023-12-14T14:51:00;9.40;99.90
997;DHT22;487;50.126;8.698;2023-12-14T14:53:31;9.40;99.90
997;DHT22;487;50.126;8.698;2023-12-14T14:55:59;9.40;99.90
997;DHT22;487;50.126;8.698;2023-12-14T14:58:27;9.40;99.90
997;DHT22;487;50.126;8.698;2023-12-14T15:00:55;9.40;99.90
997;DHT22;487;50.126;8.698;2023-12-14T15:05:52;9.30;99.90
997;DHT22;487;50.126;8.698;2023-12-14T15:08:20;9.30;99.90
997;DHT22;487;50.126;8.698;2023-12-14T15:10:49;9.30;99.90
997;DHT22;487;50.126;8.698;2023-12-14T15:15:46;9.20;99.90
997;DHT22;487;50.126;8.698;2023-12-14T15:23:12;9.10;99.90
997;DHT22;487;50.126;8.698;2023-12-14T15:25:41;9.10;99.90
997;DHT22;487;50.126;8.698;2023-12-14T15:28:10;9.10;99.90
997;DHT22;487;50.126;8.698;2023-12-14T15:30:38;9.00;99.90
997;DHT22;487;50.126;8.698;2023-12-14T15:33:05;9.00;99.90
997;DHT22;487;50.126;8.698;2023-12-14T15:35:35;9.00;99.90
997;DHT22;487;50.126;8.698;2023-12-14T15:38:03;9.00;99.90
997;DHT22;487;50.126;8.698;2023-12-14T15:40:31;9.00;99.90
997;DHT22;487;50.126;8.698;2023-12-14T15:42:59;9.00;99.90
997;DHT22;487;50.126;8.698;2023-12-14T15:45:28;9.00;99.90
997;DHT22;487;50.126;8.698;2023-12-14T15:47:59;8.90;99.90
997;DHT22;487;50.126;8.698;2023-12-14T15:50:27;8.70;99.90
997;DHT22;487;50.126;8.698;2023-12-14T15:52:55;8.70;99.90
997;DHT22;487;50.126;8.698;2023-12-14T15:55:23;8.60;99.90
997;DHT22;487;50.126;8.698;2023-12-14T15:57:53;8.70;99.90
997;DHT22;487;50.126;8.698;2023-12-14T16:00:22;8.60;99.90
997;DHT22;487;50.126;8.698;2023-12-14T16:02:51;8.60;99.90
997;DHT22;487;50.126;8.698;2023-12-14T16:05:19;8.50;99.90
997;DHT22;487;50.126;8.698;2023-12-14T16:07:47;8.50;99.90
997;DHT22;487;50.126;8.698;2023-12-14T16:10:15;8.40;99.90
997;DHT22;487;50.126;8.698;2023-12-14T16:12:43;8.40;99.90
997;DHT22;487;50.126;8.698;2023-12-14T16:15:11;8.40;99.90
997;DHT22;487;50.126;8.698;2023-12-14T16:17:39;8.40;99.90
997;DHT22;487;50.126;8.698;2023-12-14T16:20:09;8.40;99.90
997;DHT22;487;50.126;8.698;2023-12-14T16:22:37;8.30;99.90
997;DHT22;487;50.126;8.698;2023-12-14T16:25:05;8.30;99.90
997;DHT22;487;50.126;8.698;2023-12-14T16:27:33;8.40;99.90
997;DHT22;487;50.126;8.698;2023-12-14T16:32:29;8.40;99.90
997;DHT22;487;50.126;8.698;2023-12-14T16:34:58;8.50;99.90
997;DHT22;487;50.126;8.698;2023-12-14T16:37:27;8.40;99.90
997;DHT22;487;50.126;8.698;2023-12-14T16:39:57;8.40;99.90
997;DHT22;487;50.126;8.698;2023-12-14T16:42:25;8.30;99.90
997;DHT22;487;50.126;8.698;2023-12-14T16:44:53;8.30;99.90
997;DHT22;487;50.126;8.698;2023-12-14T16:47:21;8.30;99.90
997;DHT22;487;50.126;8.698;2023-12-14T16:49:49;8.30;99.90
997;DHT22;487;50.126;8.698;2023-12-14T16:52:17;8.40;99.90
997;DHT22;487;50.126;8.698;2023-12-14T16:54:46;8.40;99.90
997;DHT22;487;50.126;8.698;2023-12-14T16:57:14;8.50;99.90
997;DHT22;487;50.126;8.698;2023-12-14T16:59:42;8.50;99.90
997;DHT22;487;50.126;8.698;2023-12-14T17:02:10;8.50;99.90
997;DHT22;487;50.126;8.698;2023-12-14T17:04:39;8.40;99.90
997;DHT22;487;50.126;8.698;2023-12-14T17:07:07;8.40;99.90
997;DHT22;487;50.126;8.698;2023-12-14T17:09:35;8.40;99.90
997;DHT22;487;50.126;8.698;2023-12-14T17:12:05;8.40;99.90
997;DHT22;487;50.126;8.698;2023-12-14T17:14:33;8.40;99.90
997;DHT22;487;50.126;8.698;2023-12-14T17:17:01;8.20;99.90
997;DHT22;487;50.126;8.698;2023-12-14T17:19:30;8.20;99.90
997;DHT22;487;50.126;8.698;2023-12-14T17:21:58;8.20;99.90
997;DHT22;487;50.126;8.698;2023-12-14T17:24:26;8.10;99.90
997;DHT22;487;50.126;8.698;2023-12-14T17:26:54;8.10;99.90
997;DHT22;487;50.126;8.698;2023-12-14T17:29:23;8.10;99.90
997;DHT22;487;50.126;8.698;2023-12-14T17:31:51;8.10;99.90
997;DHT22;487;50.126;8.698;2023-12-14T17:34:19;8.20;99.90
997;DHT22;487;50.126;8.698;2023-12-14T17:36:47;8.10;99.90
997;DHT22;487;50.126;8.698;2023-12-14T17:39:17;8.10;99.90
997;DHT22;487;50.126;8.698;2023-12-14T17:41:45;8.20;99.90
997;DHT22;487;50.126;8.698;2023-12-14T17:44:12;8.20;99.90
997;DHT22;487;50.126;8.698;2023-12-14T17:46:42;8.20;99.90
997;DHT22;487;50.126;8.698;2023-12-14T17:49:10;8.30;99.90
997;DHT22;487;50.126;8.698;2023-12-14T17:51:39;8.20;99.90
997;DHT22;487;50.126;8.698;2023-12-14T17:54:08;8.10;99.90
997;DHT22;487;50.126;8.698;2023-12-14T17:56:36;8.10;99.90
997;DHT22;487;50.126;8.698;2023-12-14T17:59:04;8.00;99.90
997;DHT22;487;50.126;8.698;2023-12-14T18:01:32;8.00;99.90
997;DHT22;487;50.126;8.698;2023-12-14T18:04:01;8.10;99.90
997;DHT22;487;50.126;8.698;2023-12-14T18:06:29;8.00;99.90
997;DHT22;487;50.126;8.698;2023-12-14T18:08:57;8.10;99.90
997;DHT22;487;50.126;8.698;2023-12-14T18:11:25;8.10;99.90